Terminal Aerodrome Forecast
Issued by NWS

Home | Current Version | Previous Version | Text Only | Print | Product List | Glossary On
Versions: 1 2 3 4 5 6 7 8 9 10 11 12 13
000
FTUS41 KBTV 221731 AAA
TAFMSS
TAF AMD
KMSS 221731Z 2217/2318 06013G20KT P6SM VCSH OVC035
     FM222000 06014G23KT 2SM -SN BR OVC020
     FM222300 06015G24KT 3SM -SNPL BR OVC008
     FM230200 06015G24KT 4SM -FZRAPL BR OVC008
     FM230500 06011G17KT 5SM -FZRA BR OVC009
     FM230900 07008KT 5SM -RA BR OVC015 WS020/18030KT
     FM231200 08005KT 5SM -RA BR OVC003 WS020/20030KT=

USA.gov is the U.S. government's official web portal to all federal, state and local government web resources and services.